Portada
METAR-TAF:

METAR-TAF

Aeroports :

Dhahran, Aràbia Saudita

latitud: 26-16N, longitud: 050-09E, altitud: 26 m

Observació

L'informe es va fer fa 53 minuts, a les 22:00 UTC
Vent 2 kt amb direcció variable
Temperatura 22°C
Humitat 50%
Pressió 1015 hPa
Visibilitat 10 km o més
sense núvols per sota de 1500 mi sense presència de cumulonimbus.

METAR: OEDR 132200Z VRB02KT CAVOK 22/11 Q1015

Hora: 01:53 (22:53 UTC)

Pronòstic

L'informe es va fer fa 7 hores i 53 minuts, a les 15:00 UTC
Pronòstic vàlid del 13 a les 18 UTC al 14 a les 24 UTC
Vent 5 kt amb direcció variable
Visibilitat 10 km o més
sense núvols per sota de 1500 mi sense presència de cumulonimbus.

TAF: OEDR 131500Z 1318/1424 VRB05KT CAVOK

Observacions i pronòstics meteorològics de més de 4000 aeroports (METAR i TAF).

Les estacions disponibles són els punts grocs i vermells al mapa.

Posi el ratolí al punt desitjat per veure el nom de l'estació.

Feu clic per veure les observacions i els pronòstics meteorològics.

Per canviar el mapa: feu clic els botons verds amb una creu de color negre per apropar; al botó verd amb un guió per allunyar la imatge; o en les fletxes verdes per a mapes adjacents.


METAR-TAF: